Time;durP1;ratioP1;P1;durP2;ratioP2;P2;SDS_P1;SDS_P2;PMS_P1;PMS_P2;Temp;Humidity;BMP_temperature;BMP_pressure;BME280_temperature;BME280_humidity;BME280_pressure;Samples;Min_cycle;Max_cycle;Signal;HPM_P1;HPM_P2
2023/05/16 00:02:06;;;;;;;7.93;1.17;;;10.10;99.90;;;;;;4996207;28;20550;-72
2023/05/16 00:04:32;;;;;;;9.65;1.15;;;10.10;99.90;;;;;;4997081;28;20137;-73
2023/05/16 00:06:58;;;;;;;6.95;1.20;;;10.10;99.90;;;;;;4996154;28;20085;-73
2023/05/16 00:09:23;;;;;;;7.25;1.25;;;10.00;99.90;;;;;;4994979;28;20050;-73
2023/05/16 00:11:49;;;;;;;8.77;1.33;;;10.00;99.90;;;;;;4996221;28;20050;-72
2023/05/16 00:14:15;;;;;;;9.65;0.80;;;10.00;99.90;;;;;;4996110;28;20078;-72
2023/05/16 00:16:41;;;;;;;4.25;1.25;;;10.00;99.90;;;;;;4996070;28;20073;-72
2023/05/16 00:19:07;;;;;;;3.22;0.85;;;9.90;99.90;;;;;;4995972;28;20482;-72
2023/05/16 00:21:33;;;;;;;5.53;0.80;;;9.90;99.90;;;;;;4996494;28;20047;-73
2023/05/16 00:23:59;;;;;;;8.82;1.30;;;9.90;99.90;;;;;;4996728;28;20042;-73
2023/05/16 00:26:25;;;;;;;5.38;1.00;;;9.80;99.90;;;;;;4996338;28;20377;-73
2023/05/16 00:28:50;;;;;;;6.35;1.30;;;9.80;99.90;;;;;;4995213;28;20046;-72
2023/05/16 00:31:16;;;;;;;5.18;1.13;;;9.80;99.90;;;;;;4995786;28;20054;-72
2023/05/16 00:33:42;;;;;;;4.05;1.00;;;9.80;99.90;;;;;;4996534;28;20046;-72
2023/05/16 00:36:08;;;;;;;7.97;0.98;;;9.70;99.90;;;;;;4995705;28;20092;-72
2023/05/16 00:38:34;;;;;;;8.00;0.90;;;9.70;99.90;;;;;;4978536;28;20105;-72
2023/05/16 00:41:00;;;;;;;3.55;0.82;;;9.70;99.90;;;;;;4995596;28;20042;-72
2023/05/16 00:43:25;;;;;;;9.52;1.70;;;9.70;99.90;;;;;;4994947;28;20133;-72
2023/05/16 00:45:51;;;;;;;10.45;1.75;;;9.70;99.90;;;;;;4995443;28;20038;-73
2023/05/16 00:48:18;;;;;;;5.72;0.90;;;9.70;99.90;;;;;;4995176;28;20051;-74
2023/05/16 00:50:43;;;;;;;9.45;1.30;;;9.70;99.90;;;;;;4995429;28;20051;-72
2023/05/16 00:53:10;;;;;;;6.85;0.90;;;9.70;99.90;;;;;;4996168;28;20046;-73
2023/05/16 00:55:37;;;;;;;3.35;0.90;;;9.70;99.90;;;;;;4995338;28;20061;-73
2023/05/16 00:58:04;;;;;;;5.07;0.90;;;9.70;99.90;;;;;;4995294;28;20046;-73
2023/05/16 01:00:30;;;;;;;4.65;0.77;;;9.70;99.90;;;;;;4995220;28;20164;-72
2023/05/16 01:02:56;;;;;;;6.43;1.17;;;9.70;99.90;;;;;;4994774;28;20111;-73
2023/05/16 01:05:22;;;;;;;6.00;0.95;;;9.70;99.90;;;;;;4995408;28;20046;-72
2023/05/16 01:07:48;;;;;;;3.75;0.90;;;9.70;99.90;;;;;;4994592;28;20463;-73
2023/05/16 01:10:14;;;;;;;5.85;0.80;;;9.70;99.90;;;;;;4995589;28;20054;-73
2023/05/16 01:12:44;;;;;;;6.32;0.90;;;9.70;99.90;;;;;;4994800;28;20104;-73
2023/05/16 01:15:30;;;;;;;7.38;1.00;;;9.90;99.90;;;;;;4994898;28;20504;-71
2023/05/16 01:18:01;;;;;;;5.22;0.75;;;9.70;99.90;;;;;;4994846;28;20115;-73
2023/05/16 01:20:47;;;;;;;4.55;0.77;;;9.70;99.90;;;;;;4994939;28;20051;-73
2023/05/16 01:23:40;;;;;;;3.53;0.77;;;9.70;99.90;;;;;;4995098;28;20073;-73
2023/05/16 01:26:12;;;;;;;6.35;1.00;;;9.60;99.90;;;;;;4994797;28;20108;-72
2023/05/16 01:28:38;;;;;;;4.35;0.80;;;9.80;99.90;;;;;;4994970;28;20058;-72
2023/05/16 01:31:05;;;;;;;5.85;0.70;;;9.60;99.90;;;;;;4994702;28;20046;-73
2023/05/16 01:33:30;;;;;;;5.80;0.70;;;9.60;99.90;;;;;;4994636;28;20046;-73
2023/05/16 01:36:15;;;;;;;4.95;0.90;;;9.50;99.90;;;;;;4994623;28;20076;-73
2023/05/16 01:38:52;;;;;;;5.95;0.65;;;9.50;99.90;;;;;;4994606;28;20058;-72
2023/05/16 01:41:26;;;;;;;4.72;0.50;;;9.50;99.90;;;;;;4995086;28;20045;-72
2023/05/16 01:44:00;;;;;;;5.80;1.20;;;9.50;99.90;;;;;;4994626;28;20053;-73
2023/05/16 01:46:29;;;;;;;3.35;0.75;;;9.40;99.90;;;;;;4995014;28;20042;-72
2023/05/16 01:49:16;;;;;;;5.43;0.63;;;9.40;99.90;;;;;;4994364;28;20042;-73
2023/05/16 01:51:44;;;;;;;6.22;1.17;;;9.40;99.90;;;;;;4994446;28;20046;-73
2023/05/16 01:54:12;;;;;;;5.93;0.90;;;9.30;99.90;;;;;;4993034;28;20054;-73
2023/05/16 01:56:40;;;;;;;4.10;0.85;;;9.30;99.90;;;;;;4994366;28;20046;-73
2023/05/16 01:59:07;;;;;;;5.53;0.95;;;9.20;99.90;;;;;;4994349;28;20086;-73
2023/05/16 02:01:33;;;;;;;3.08;0.63;;;9.20;99.90;;;;;;4994264;28;20050;-72
2023/05/16 02:03:59;;;;;;;4.63;0.98;;;9.20;99.90;;;;;;4995390;28;20367;-73
2023/05/16 02:06:25;;;;;;;8.18;0.90;;;9.20;99.90;;;;;;4994721;28;20081;-72
2023/05/16 02:08:51;;;;;;;4.72;0.80;;;9.10;99.90;;;;;;4994206;28;20134;-73
2023/05/16 02:11:17;;;;;;;6.13;1.52;;;9.10;99.90;;;;;;4994199;28;20442;-73
2023/05/16 02:13:43;;;;;;;4.35;1.35;;;9.10;99.90;;;;;;4993947;28;20093;-73
2023/05/16 02:16:10;;;;;;;7.95;0.82;;;9.00;99.90;;;;;;4994139;28;20075;-73
2023/05/16 02:18:36;;;;;;;7.03;0.95;;;9.00;99.90;;;;;;4976762;28;20042;-73
2023/05/16 02:21:01;;;;;;;6.55;0.73;;;9.00;99.90;;;;;;4992820;28;20053;-72
2023/05/16 02:23:27;;;;;;;4.82;0.70;;;9.00;99.90;;;;;;4994599;28;20057;-72
2023/05/16 02:25:52;;;;;;;4.22;0.85;;;8.90;99.90;;;;;;4994473;28;20077;-72
2023/05/16 02:28:18;;;;;;;6.75;0.80;;;9.00;99.90;;;;;;4993071;28;20390;-72
2023/05/16 02:30:44;;;;;;;4.75;0.80;;;9.00;99.90;;;;;;4994587;28;20050;-72
2023/05/16 02:33:10;;;;;;;4.50;0.73;;;9.00;99.90;;;;;;4992876;28;20166;-72
2023/05/16 02:35:36;;;;;;;4.60;0.65;;;8.90;99.90;;;;;;4993962;28;20050;-73
2023/05/16 02:38:01;;;;;;;6.57;0.95;;;8.80;99.90;;;;;;4993558;28;20039;-72
2023/05/16 02:40:27;;;;;;;6.10;1.35;;;8.80;99.90;;;;;;4993942;28;20046;-73
2023/05/16 02:42:53;;;;;;;3.97;0.70;;;8.70;99.90;;;;;;4993891;28;20085;-71
2023/05/16 02:45:18;;;;;;;5.38;0.90;;;8.70;99.90;;;;;;4993860;28;20046;-73
2023/05/16 02:47:44;;;;;;;4.05;0.63;;;8.70;99.90;;;;;;4993994;28;20049;-73
2023/05/16 02:50:10;;;;;;;3.08;0.57;;;8.60;99.90;;;;;;4992690;28;20137;-72
2023/05/16 02:52:35;;;;;;;6.65;0.80;;;8.60;99.90;;;;;;4993811;28;20046;-73
2023/05/16 02:55:01;;;;;;;6.53;0.95;;;8.60;99.90;;;;;;4993569;28;20089;-72
2023/05/16 02:57:27;;;;;;;3.83;0.80;;;8.60;99.90;;;;;;4993853;28;20049;-72
2023/05/16 02:59:52;;;;;;;5.20;0.90;;;8.60;99.90;;;;;;4994251;28;20317;-72
2023/05/16 03:02:18;;;;;;;4.55;1.10;;;8.60;99.90;;;;;;4976116;28;20094;-72
2023/05/16 03:04:44;;;;;;;5.75;1.05;;;8.50;99.90;;;;;;4995169;28;20054;-72
2023/05/16 03:07:09;;;;;;;7.28;0.80;;;8.50;99.90;;;;;;4997802;28;20053;-73
2023/05/16 03:09:35;;;;;;;9.20;1.08;;;8.50;99.90;;;;;;4997873;28;20101;-72
2023/05/16 03:12:01;;;;;;;4.15;0.70;;;8.50;99.90;;;;;;4996129;28;20470;-73
2023/05/16 03:14:26;;;;;;;5.32;0.75;;;8.40;99.90;;;;;;4997232;28;20054;-74
2023/05/16 03:16:52;;;;;;;2.78;0.70;;;8.40;99.90;;;;;;4995905;28;20046;-73
2023/05/16 03:19:18;;;;;;;5.78;0.88;;;8.30;99.90;;;;;;4997063;28;20050;-73
2023/05/16 03:21:43;;;;;;;2.65;1.05;;;8.70;99.90;;;;;;4995912;28;20594;-73
2023/05/16 03:24:10;;;;;;;6.30;0.90;;;8.60;99.90;;;;;;4995922;28;20058;-73
2023/05/16 03:26:35;;;;;;;5.68;1.23;;;8.50;99.90;;;;;;4980456;28;20050;-73
2023/05/16 03:29:01;;;;;;;2.85;0.60;;;8.40;99.90;;;;;;4996940;28;20046;-73
2023/05/16 03:31:27;;;;;;;3.28;0.75;;;8.30;99.90;;;;;;4997366;28;20046;-73
2023/05/16 03:33:53;;;;;;;4.57;0.70;;;8.40;99.90;;;;;;4996867;28;20432;-73
2023/05/16 03:36:21;;;;;;;3.45;0.60;;;8.30;99.90;;;;;;4996859;28;20042;-73
2023/05/16 03:38:47;;;;;;;3.92;0.80;;;8.60;99.90;;;;;;4996810;28;20047;-73
2023/05/16 03:41:12;;;;;;;4.95;0.80;;;8.30;99.90;;;;;;4995818;28;20042;-73
2023/05/16 03:43:38;;;;;;;5.25;1.02;;;8.40;99.90;;;;;;4996932;28;20130;-73
2023/05/16 03:46:04;;;;;;;5.07;0.80;;;8.50;99.90;;;;;;4996539;28;20042;-73
2023/05/16 03:48:30;;;;;;;4.35;0.85;;;8.40;99.90;;;;;;4996552;28;20430;-73
2023/05/16 03:50:56;;;;;;;4.63;0.80;;;8.40;99.90;;;;;;4997048;28;20050;-74
2023/05/16 03:53:21;;;;;;;4.70;0.82;;;8.50;99.90;;;;;;4996494;28;20050;-73
2023/05/16 03:55:47;;;;;;;6.85;1.23;;;8.50;99.90;;;;;;4996504;28;20089;-72
2023/05/16 03:58:13;;;;;;;2.53;0.50;;;8.50;99.90;;;;;;4995717;28;20134;-73
2023/05/16 04:00:38;;;;;;;3.42;0.80;;;8.50;99.90;;;;;;4995967;28;20046;-72
2023/05/16 04:03:04;;;;;;;3.55;0.70;;;8.50;99.90;;;;;;4995724;28;20046;-73
2023/05/16 04:05:30;;;;;;;5.72;0.80;;;8.60;99.90;;;;;;4996221;28;20058;-72
2023/05/16 04:07:55;;;;;;;10.13;0.90;;;8.70;99.90;;;;;;4996219;28;20156;-73
2023/05/16 04:10:21;;;;;;;3.70;0.70;;;8.50;99.90;;;;;;4996163;28;20047;-73
2023/05/16 04:12:47;;;;;;;7.68;0.82;;;8.60;99.90;;;;;;4996189;28;20050;-73
2023/05/16 04:15:13;;;;;;;4.93;0.75;;;8.50;99.90;;;;;;4994961;28;20046;-73
2023/05/16 04:17:39;;;;;;;7.47;0.70;;;8.50;99.90;;;;;;4995328;28;20039;-72
2023/05/16 04:20:05;;;;;;;4.30;0.75;;;8.50;99.90;;;;;;4994837;28;20050;-73
2023/05/16 04:22:31;;;;;;;9.20;1.00;;;8.50;99.90;;;;;;4995733;28;20529;-73
2023/05/16 04:24:57;;;;;;;5.60;1.05;;;8.40;99.90;;;;;;4996237;28;20046;-71
2023/05/16 04:27:23;;;;;;;4.57;0.73;;;8.50;99.90;;;;;;4995808;28;20097;-73
2023/05/16 04:29:48;;;;;;;9.02;1.05;;;8.50;99.90;;;;;;4995853;28;20110;-72
2023/05/16 04:32:14;;;;;;;8.13;0.88;;;8.50;99.90;;;;;;4995831;28;20042;-73
2023/05/16 04:34:40;;;;;;;5.07;1.00;;;8.40;99.90;;;;;;4995738;28;20046;-73
2023/05/16 04:37:07;;;;;;;3.50;0.68;;;8.40;99.90;;;;;;4995698;28;20042;-73
2023/05/16 04:39:33;;;;;;;3.97;0.60;;;8.40;99.90;;;;;;4978394;28;20125;-72
2023/05/16 04:42:00;;;;;;;5.60;0.98;;;8.40;99.90;;;;;;4996381;28;20453;-72
2023/05/16 04:44:25;;;;;;;3.78;0.95;;;8.40;99.90;;;;;;4995627;28;20434;-72
2023/05/16 04:46:52;;;;;;;4.28;0.90;;;8.60;99.90;;;;;;4994263;28;20046;-72
2023/05/16 04:49:18;;;;;;;5.15;0.75;;;8.40;99.90;;;;;;4995406;28;20082;-73
2023/05/16 04:51:44;;;;;;;4.68;0.85;;;8.40;99.90;;;;;;4995934;28;20046;-73
2023/05/16 04:54:10;;;;;;;5.60;0.70;;;8.40;99.90;;;;;;4995687;28;20068;-72
2023/05/16 04:56:36;;;;;;;3.65;0.98;;;8.40;99.90;;;;;;4995290;28;20081;-72
2023/05/16 04:59:03;;;;;;;4.93;0.90;;;8.50;99.90;;;;;;4994334;28;20053;-72
2023/05/16 05:01:29;;;;;;;6.10;0.80;;;8.50;99.90;;;;;;4994506;28;20111;-72
2023/05/16 05:03:55;;;;;;;5.35;0.80;;;8.60;99.90;;;;;;4995444;28;20062;-72
2023/05/16 05:06:20;;;;;;;5.70;0.80;;;8.70;99.90;;;;;;4995059;28;20046;-72
2023/05/16 05:08:46;;;;;;;5.70;0.80;;;8.70;99.90;;;;;;4995115;28;20050;-73
2023/05/16 05:11:12;;;;;;;3.85;0.90;;;8.70;99.90;;;;;;4995035;28;20043;-71
2023/05/16 05:13:38;;;;;;;4.57;1.02;;;8.80;99.90;;;;;;4994999;28;20121;-73
2023/05/16 05:16:04;;;;;;;5.85;0.80;;;8.80;99.90;;;;;;4994716;28;20105;-73
2023/05/16 05:18:30;;;;;;;6.72;0.73;;;8.90;99.90;;;;;;4994878;28;20089;-72
2023/05/16 05:20:56;;;;;;;4.13;0.70;;;8.90;99.90;;;;;;4994933;28;20050;-72
2023/05/16 05:23:22;;;;;;;7.75;1.40;;;9.00;99.90;;;;;;4994838;28;20424;-73
2023/05/16 05:25:48;;;;;;;4.82;0.70;;;9.10;99.90;;;;;;4994731;28;20042;-72
2023/05/16 05:28:15;;;;;;;7.43;1.05;;;9.20;99.90;;;;;;4993938;28;20050;-72
2023/05/16 05:30:40;;;;;;;4.32;0.80;;;9.30;99.90;;;;;;4994655;28;20129;-73
2023/05/16 05:33:06;;;;;;;2.45;0.70;;;9.30;99.90;;;;;;4994721;28;20126;-72
2023/05/16 05:35:32;;;;;;;4.95;0.90;;;9.30;99.90;;;;;;4994626;28;20048;-72
2023/05/16 05:37:57;;;;;;;2.80;0.70;;;9.30;99.90;;;;;;4994597;28;20132;-72
2023/05/16 05:40:23;;;;;;;4.45;0.88;;;9.30;99.90;;;;;;4993307;28;20057;-73
2023/05/16 05:42:49;;;;;;;7.63;0.68;;;9.30;99.90;;;;;;4994549;28;20051;-73
2023/05/16 05:45:15;;;;;;;2.90;0.60;;;9.40;99.90;;;;;;4994478;28;20137;-72
2023/05/16 05:47:41;;;;;;;2.65;0.65;;;9.40;99.90;;;;;;4993131;28;20042;-73
2023/05/16 05:50:10;;;;;;;6.35;0.90;;;9.60;99.90;;;;;;4994449;28;20137;-72
2023/05/16 05:52:36;;;;;;;5.22;0.88;;;9.50;99.90;;;;;;4977595;28;20054;-71
2023/05/16 05:55:03;;;;;;;4.50;0.93;;;9.60;99.90;;;;;;4993697;28;20050;-73
2023/05/16 05:57:28;;;;;;;3.20;0.77;;;9.70;99.90;;;;;;4994395;28;20093;-72
2023/05/16 05:59:54;;;;;;;2.58;0.60;;;9.70;99.90;;;;;;4994366;28;20042;-72
2023/05/16 06:02:20;;;;;;;2.65;0.77;;;9.80;99.90;;;;;;4994125;28;20073;-71
2023/05/16 06:04:46;;;;;;;5.28;0.60;;;10.00;99.90;;;;;;4995126;28;20125;-70
2023/05/16 06:07:11;;;;;;;8.60;0.88;;;9.80;99.90;;;;;;4993350;28;20497;-72
2023/05/16 06:09:37;;;;;;;5.97;0.80;;;9.90;99.90;;;;;;4994225;28;20061;-70
2023/05/16 06:12:03;;;;;;;3.03;0.65;;;9.90;99.90;;;;;;4994257;28;20552;-71
2023/05/16 06:14:29;;;;;;;6.28;0.70;;;9.90;99.90;;;;;;4994239;28;20406;-72
2023/05/16 06:16:55;;;;;;;3.67;0.63;;;9.90;99.90;;;;;;4993929;28;20046;-71
2023/05/16 06:19:21;;;;;;;6.30;1.10;;;10.00;99.90;;;;;;4994056;28;20073;-73
2023/05/16 06:21:46;;;;;;;3.60;0.85;;;9.90;99.90;;;;;;4994166;28;20116;-72
2023/05/16 06:24:12;;;;;;;4.70;0.70;;;9.90;99.90;;;;;;4994097;28;20474;-71
2023/05/16 06:26:38;;;;;;;6.32;0.70;;;9.90;99.90;;;;;;4993269;28;20072;-71
2023/05/16 06:29:04;;;;;;;3.08;0.50;;;9.90;99.90;;;;;;4994360;28;20057;-72
2023/05/16 06:31:31;;;;;;;4.55;0.50;;;9.90;99.90;;;;;;4992952;28;20050;-71
2023/05/16 06:33:56;;;;;;;4.57;0.52;;;10.00;99.90;;;;;;4993104;28;20137;-71
2023/05/16 06:36:22;;;;;;;3.33;0.65;;;10.00;99.90;;;;;;4994328;28;20501;-70
2023/05/16 06:38:49;;;;;;;4.25;0.73;;;10.10;99.90;;;;;;4994031;28;20478;-72
2023/05/16 06:41:15;;;;;;;3.75;0.43;;;10.20;99.90;;;;;;4995970;28;20449;-69
2023/05/16 06:43:41;;;;;;;3.58;0.50;;;10.30;99.90;;;;;;4996930;28;20050;-69
2023/05/16 06:46:06;;;;;;;3.65;0.70;;;10.30;99.90;;;;;;4998034;28;20042;-72
2023/05/16 06:48:32;;;;;;;4.80;0.45;;;10.40;99.90;;;;;;4996736;28;20043;-71
2023/05/16 06:50:58;;;;;;;4.85;0.73;;;10.50;99.90;;;;;;4998218;28;20162;-71
2023/05/16 06:53:25;;;;;;;1.92;0.38;;;10.60;99.90;;;;;;4997971;28;20434;-75
2023/05/16 06:55:50;;;;;;;2.35;0.50;;;10.60;99.90;;;;;;4997580;28;20406;-72
2023/05/16 06:58:16;;;;;;;3.03;0.50;;;10.70;99.90;;;;;;4997534;28;20057;-71
2023/05/16 07:00:42;;;;;;;5.13;0.50;;;10.70;99.90;;;;;;4997087;28;20051;-72
2023/05/16 07:03:08;;;;;;;2.28;0.50;;;10.70;99.90;;;;;;4997733;28;20059;-71
2023/05/16 07:05:34;;;;;;;3.65;0.50;;;10.70;99.90;;;;;;4997396;28;20060;-72
2023/05/16 07:08:00;;;;;;;4.35;0.50;;;10.70;99.90;;;;;;4997376;28;20046;-69
2023/05/16 07:10:26;;;;;;;2.90;0.68;;;10.80;99.90;;;;;;4997445;28;20535;-72
2023/05/16 07:12:51;;;;;;;1.92;0.60;;;10.90;99.90;;;;;;4996143;28;20053;-71
2023/05/16 07:15:17;;;;;;;4.30;0.55;;;11.00;99.90;;;;;;4997358;28;20078;-69
2023/05/16 07:17:43;;;;;;;2.90;0.52;;;11.00;99.90;;;;;;4997210;28;20344;-71
2023/05/16 07:20:12;;;;;;;4.95;0.80;;;11.00;99.90;;;;;;4997234;28;20046;-72
2023/05/16 07:22:38;;;;;;;2.10;0.70;;;11.00;99.90;;;;;;4997155;28;20468;-72
2023/05/16 07:25:05;;;;;;;2.70;0.65;;;10.90;99.90;;;;;;4996851;28;20509;-69
2023/05/16 07:27:31;;;;;;;4.05;0.60;;;10.90;99.90;;;;;;4995601;28;20062;-71
2023/05/16 07:29:57;;;;;;;2.83;0.57;;;10.80;99.90;;;;;;4997021;28;20438;-67
2023/05/16 07:32:22;;;;;;;3.60;0.68;;;10.80;99.90;;;;;;4996990;28;20089;-71
2023/05/16 07:34:48;;;;;;;3.60;0.63;;;10.80;99.90;;;;;;4979528;28;20133;-70
2023/05/16 07:37:15;;;;;;;3.83;0.60;;;10.90;99.90;;;;;;4996910;28;20069;-71
2023/05/16 07:39:41;;;;;;;4.22;0.60;;;11.00;99.90;;;;;;4996808;28;20054;-71
2023/05/16 07:42:08;;;;;;;3.55;0.63;;;11.00;99.90;;;;;;4979480;28;20126;-73
2023/05/16 07:44:34;;;;;;;2.78;0.60;;;10.90;99.90;;;;;;4995782;28;20371;-70
2023/05/16 07:47:00;;;;;;;3.45;0.50;;;10.80;99.90;;;;;;4996612;28;20398;-69
2023/05/16 07:49:26;;;;;;;4.45;0.70;;;10.60;99.90;;;;;;4996562;28;20050;-71
2023/05/16 07:51:52;;;;;;;1.45;0.40;;;10.50;99.90;;;;;;4995620;28;20046;-71
2023/05/16 07:54:17;;;;;;;3.10;0.70;;;10.40;99.90;;;;;;4995518;28;20545;-69
2023/05/16 07:56:43;;;;;;;6.15;0.60;;;10.30;99.90;;;;;;4996942;28;20046;-71
2023/05/16 07:59:09;;;;;;;3.13;0.52;;;10.30;99.90;;;;;;4996610;28;20054;-71
2023/05/16 08:01:35;;;;;;;3.80;0.57;;;10.40;99.90;;;;;;4996534;28;20121;-72
2023/05/16 08:04:00;;;;;;;5.10;0.68;;;10.50;99.90;;;;;;4996478;28;20486;-70
2023/05/16 08:06:26;;;;;;;3.85;0.63;;;10.70;99.90;;;;;;4995248;28;20046;-68
2023/05/16 08:08:52;;;;;;;2.30;1.30;;;10.80;99.90;;;;;;4996400;28;20050;-69
2023/05/16 08:11:21;;;;;;;2.25;0.60;;;10.90;99.90;;;;;;4996346;28;20073;-70
2023/05/16 08:13:50;;;;;;;5.68;0.52;;;11.10;99.90;;;;;;4996363;28;20087;-70
2023/05/16 08:16:15;;;;;;;1.77;0.52;;;11.20;99.90;;;;;;4997097;28;20038;-68
2023/05/16 08:18:41;;;;;;;1.73;0.57;;;11.30;99.90;;;;;;4996213;28;20372;-69
2023/05/16 08:21:08;;;;;;;3.88;0.77;;;11.30;99.90;;;;;;4995898;28;20100;-69
2023/05/16 08:23:35;;;;;;;4.50;0.70;;;11.40;99.90;;;;;;4996143;28;20057;-69
2023/05/16 08:26:01;;;;;;;6.15;0.73;;;11.40;99.90;;;;;;4995340;28;20160;-70
2023/05/16 08:28:28;;;;;;;4.78;0.60;;;11.40;99.90;;;;;;4996064;28;20054;-71
2023/05/16 08:30:53;;;;;;;4.60;0.60;;;11.40;99.90;;;;;;4995078;28;20050;-72
2023/05/16 08:33:19;;;;;;;1.90;0.80;;;11.40;99.90;;;;;;4996256;28;20474;-73
2023/05/16 08:35:45;;;;;;;3.30;0.75;;;11.50;99.90;;;;;;4995931;28;20050;-72
2023/05/16 08:38:11;;;;;;;3.75;0.60;;;11.70;99.90;;;;;;4995783;28;20050;-71
2023/05/16 08:40:37;;;;;;;5.50;0.75;;;11.80;99.90;;;;;;4995817;28;20057;-70
2023/05/16 08:43:04;;;;;;;2.72;0.45;;;11.80;99.90;;;;;;4994601;28;20053;-72
2023/05/16 08:45:30;;;;;;;4.18;0.50;;;11.70;99.90;;;;;;4996505;28;20387;-73
2023/05/16 08:47:59;;;;;;;3.55;0.70;;;11.70;99.90;;;;;;4995547;28;20042;-73
2023/05/16 08:50:28;;;;;;;6.45;0.82;;;11.60;99.90;;;;;;4996146;28;20433;-74
2023/05/16 08:52:53;;;;;;;4.57;0.70;;;11.60;99.90;;;;;;4996349;28;20046;-71
2023/05/16 08:55:23;;;;;;;6.63;0.60;;;11.60;99.90;;;;;;4996012;28;20057;-72
2023/05/16 08:57:50;;;;;;;5.53;0.75;;;11.60;99.90;;;;;;4995437;28;20039;-70
2023/05/16 09:00:18;;;;;;;5.07;0.90;;;11.70;99.90;;;;;;4995112;28;20525;-69
2023/05/16 09:02:44;;;;;;;5.07;0.60;;;11.80;99.90;;;;;;4995332;28;20061;-74
2023/05/16 09:05:12;;;;;;;3.60;0.60;;;11.80;99.90;;;;;;4995381;28;20136;-73
2023/05/16 09:07:39;;;;;;;2.55;0.75;;;11.80;99.90;;;;;;4995169;28;20475;-72
2023/05/16 09:10:08;;;;;;;2.88;0.60;;;11.80;99.90;;;;;;4995239;28;20127;-70
2023/05/16 09:12:34;;;;;;;5.32;0.82;;;11.90;99.90;;;;;;4995169;28;20049;-71
2023/05/16 09:15:05;;;;;;;3.70;0.60;;;11.90;99.90;;;;;;4995968;28;20429;-70
2023/05/16 09:17:37;;;;;;;7.25;0.70;;;11.90;99.90;;;;;;4977912;28;20117;-68
2023/05/16 09:20:09;;;;;;;5.03;0.52;;;11.80;99.90;;;;;;4995709;28;20061;-74
2023/05/16 09:22:36;;;;;;;3.05;0.52;;;11.80;99.90;;;;;;4995051;28;20054;-73
2023/05/16 09:25:03;;;;;;;2.45;0.50;;;11.60;99.90;;;;;;4994959;28;20054;-74
2023/05/16 09:27:30;;;;;;;1.35;0.47;;;11.40;99.90;;;;;;4994867;28;20046;-74
2023/05/16 09:29:57;;;;;;;3.55;0.65;;;11.10;99.90;;;;;;4993713;28;20493;-72
2023/05/16 09:32:23;;;;;;;1.10;0.40;;;10.80;99.90;;;;;;4994179;28;20077;-73
2023/05/16 09:34:51;;;;;;;3.47;0.40;;;10.50;99.90;;;;;;4995091;28;20053;-71
2023/05/16 09:37:18;;;;;;;2.95;0.50;;;10.40;99.90;;;;;;4994474;28;20514;-73
2023/05/16 09:39:49;;;;;;;1.55;0.65;;;10.30;99.90;;;;;;4994755;28;20141;-72
2023/05/16 09:42:16;;;;;;;5.53;0.90;;;10.40;99.90;;;;;;4994422;28;20051;-74
2023/05/16 09:44:49;;;;;;;5.13;0.70;;;10.50;99.90;;;;;;4994719;28;20129;-69
2023/05/16 09:47:16;;;;;;;3.17;0.60;;;10.70;99.90;;;;;;4994560;28;20146;-69
2023/05/16 09:49:44;;;;;;;6.53;0.75;;;10.90;99.90;;;;;;4995062;28;20581;-68
2023/05/16 09:52:09;;;;;;;0.98;0.30;;;11.00;99.90;;;;;;4994061;28;20121;-71
2023/05/16 09:54:35;;;;;;;1.30;0.35;;;11.10;99.90;;;;;;4995089;28;20117;-71
2023/05/16 09:57:01;;;;;;;2.22;0.30;;;11.10;99.90;;;;;;4993456;28;20058;-75
2023/05/16 09:59:37;;;;;;;1.83;0.40;;;11.00;99.90;;;;;;4977333;28;20126;-74
2023/05/16 10:02:07;;;;;;;0.95;0.30;;;11.10;99.90;;;;;;4995283;28;20046;-74
2023/05/16 10:04:37;;;;;;;3.95;0.40;;;11.10;99.90;;;;;;4994876;28;20058;-73
2023/05/16 10:07:04;;;;;;;2.95;0.47;;;11.00;99.90;;;;;;4994339;28;20053;-72
2023/05/16 10:09:33;;;;;;;3.45;0.40;;;10.90;99.90;;;;;;4995155;28;20046;-70
2023/05/16 10:12:05;;;;;;;3.88;0.45;;;10.90;99.90;;;;;;4994858;28;20415;-73
2023/05/16 10:14:36;;;;;;;3.00;0.40;;;10.90;99.90;;;;;;4995591;28;20506;-73
2023/05/16 10:17:06;;;;;;;3.47;0.52;;;11.00;99.90;;;;;;5000740;28;20046;-67
2023/05/16 10:19:36;;;;;;;3.38;0.28;;;11.10;99.90;;;;;;5000685;28;20050;-72
2023/05/16 10:22:04;;;;;;;4.35;0.82;;;11.20;99.90;;;;;;5000719;28;20046;-68
2023/05/16 10:25:26;;;;;;;2.58;0.40;;;11.30;99.90;;;;;;4983789;28;20109;-73
2023/05/16 10:27:51;;;;;;;3.97;0.70;;;11.40;99.90;;;;;;4978069;28;20046;-67
2023/05/16 10:30:18;;;;;;;2.22;0.52;;;11.50;99.90;;;;;;5000584;28;20076;-71
2023/05/16 10:32:46;;;;;;;1.10;0.40;;;11.60;99.90;;;;;;4983214;28;20482;-72
2023/05/16 10:35:12;;;;;;;6.13;0.55;;;11.80;99.90;;;;;;4999657;28;20054;-74
2023/05/16 10:37:39;;;;;;;1.50;0.40;;;11.90;99.90;;;;;;5001116;28;20057;-72
2023/05/16 10:40:06;;;;;;;5.10;0.70;;;12.10;99.90;;;;;;5000627;28;20052;-72
2023/05/16 10:42:32;;;;;;;3.13;0.63;;;12.10;99.90;;;;;;4999950;28;20054;-69
2023/05/16 10:45:18;;;;;;;4.68;0.68;;;12.30;99.90;;;;;;4999636;28;20129;-71
2023/05/16 10:47:57;;;;;;;4.07;0.50;;;12.20;99.90;;;;;;5000360;28;20112;-70
2023/05/16 10:50:42;;;;;;;4.63;0.45;;;12.20;99.90;;;;;;5000851;28;20050;-69
2023/05/16 10:53:18;;;;;;;1.42;0.32;;;11.90;99.90;;;;;;5001393;28;20050;-68
2023/05/16 10:56:05;;;;;;;0.60;0.30;;;11.70;99.90;;;;;;5001108;28;20113;-71
2023/05/16 10:58:37;;;;;;;0.95;0.30;;;11.60;99.90;;;;;;4993813;28;20054;-68
2023/05/16 11:01:41;;;;;;;0.90;0.30;;;11.50;99.90;;;;;;5000937;28;20046;-72
2023/05/16 11:04:09;;;;;;;1.00;0.47;;;11.60;99.90;;;;;;4958749;28;20157;-70
2023/05/16 11:06:40;;;;;;;2.78;0.40;;;11.60;99.90;;;;;;4959502;28;20043;-67
2023/05/16 11:09:12;;;;;;;4.80;0.60;;;11.80;99.90;;;;;;4980653;28;20054;-71
2023/05/16 11:11:56;;;;;;;4.35;0.70;;;11.90;99.90;;;;;;5001253;28;20050;-73
2023/05/16 11:14:32;;;;;;;3.85;0.50;;;12.20;99.90;;;;;;5000321;28;20054;-71
2023/05/16 11:17:19;;;;;;;7.20;0.65;;;12.30;99.90;;;;;;5000475;28;20082;-72
2023/05/16 11:19:59;;;;;;;3.67;0.60;;;12.40;99.90;;;;;;4999018;28;20050;-73
2023/05/16 11:22:29;;;;;;;3.33;0.47;;;12.40;99.90;;;;;;5000306;28;20052;-73
2023/05/16 11:25:06;;;;;;;2.80;0.50;;;12.30;99.90;;;;;;5000313;28;20046;-74
2023/05/16 11:27:40;;;;;;;3.13;0.70;;;12.30;99.90;;;;;;4997320;28;20049;-73
2023/05/16 11:30:06;;;;;;;2.13;0.50;;;12.30;99.90;;;;;;4998012;28;20398;-72
2023/05/16 11:32:36;;;;;;;2.80;0.50;;;12.40;99.90;;;;;;4997017;28;20046;-76
2023/05/16 11:35:03;;;;;;;3.35;0.90;;;12.50;99.90;;;;;;4997059;28;20069;-68
2023/05/16 11:37:29;;;;;;;2.65;0.60;;;12.60;99.90;;;;;;4996947;28;20081;-69
2023/05/16 11:39:59;;;;;;;4.97;0.60;;;12.60;99.90;;;;;;4995783;28;20042;-72
2023/05/16 11:42:33;;;;;;;2.65;0.52;;;12.60;99.90;;;;;;4996880;28;20061;-69
2023/05/16 11:45:11;;;;;;;2.17;0.55;;;12.60;99.90;;;;;;4997199;28;20057;-68
2023/05/16 11:47:38;;;;;;;3.63;0.60;;;12.70;99.90;;;;;;4996470;28;20043;-70
2023/05/16 11:50:12;;;;;;;3.65;0.50;;;12.70;99.90;;;;;;4996808;28;20053;-68
2023/05/16 11:52:39;;;;;;;3.28;0.52;;;12.80;99.90;;;;;;4996888;28;20402;-69
2023/05/16 11:55:06;;;;;;;4.32;0.60;;;12.90;99.90;;;;;;4995581;28;20054;-70
2023/05/16 11:57:33;;;;;;;4.75;0.60;;;12.90;99.90;;;;;;4995618;28;20100;-72
2023/05/16 12:00:13;;;;;;;5.53;0.70;;;13.00;99.90;;;;;;4995603;28;20049;-72
2023/05/16 12:02:39;;;;;;;3.60;0.52;;;13.10;99.90;;;;;;4996598;28;20046;-73
2023/05/16 12:05:09;;;;;;;2.50;0.60;;;13.10;99.90;;;;;;4996182;28;20061;-74
2023/05/16 12:07:36;;;;;;;3.97;0.77;;;13.10;99.90;;;;;;4996842;28;20467;-76
2023/05/16 12:10:09;;;;;;;3.28;0.60;;;13.10;99.90;;;;;;4996404;28;20502;-72
2023/05/16 12:12:37;;;;;;;5.15;1.00;;;13.10;99.90;;;;;;4996359;28;20051;-68
2023/05/16 12:15:07;;;;;;;4.03;1.08;;;13.10;99.90;;;;;;4996069;28;20055;-72
2023/05/16 12:17:34;;;;;;;3.88;1.08;;;13.20;99.90;;;;;;4979020;28;20046;-66
2023/05/16 12:20:00;;;;;;;4.20;0.88;;;13.20;99.90;;;;;;4996109;28;20038;-75
2023/05/16 12:22:26;;;;;;;8.57;0.88;;;13.20;99.90;;;;;;4995918;28;20430;-68
2023/05/16 12:24:51;;;;;;;5.43;0.80;;;13.10;99.90;;;;;;4996197;28;20050;-75
2023/05/16 12:27:25;;;;;;;4.03;0.80;;;13.10;99.90;;;;;;4962400;28;20359;-74
